sensor_id;sensor_type;location;lat;lon;timestamp;P1;durP1;ratioP1;P2;durP2;ratioP2
49820;SDS011;36893;52.520;13.450;2024-03-08T00:09:45;3.43;;;2.00;;
49820;SDS011;36893;52.520;13.450;2024-03-08T00:19:45;4.00;;;1.70;;
49820;SDS011;36893;52.520;13.450;2024-03-08T00:29:46;3.67;;;1.60;;
49820;SDS011;36893;52.520;13.450;2024-03-08T00:39:47;6.25;;;1.83;;
49820;SDS011;36893;52.520;13.450;2024-03-08T00:49:52;4.32;;;1.95;;
49820;SDS011;36893;52.520;13.450;2024-03-08T00:59:53;3.65;;;1.70;;
49820;SDS011;36893;52.520;13.450;2024-03-08T01:09:53;2.50;;;1.60;;
49820;SDS011;36893;52.520;13.450;2024-03-08T01:19:54;4.50;;;1.80;;
49820;SDS011;36893;52.520;13.450;2024-03-08T01:29:54;3.90;;;1.53;;
49820;SDS011;36893;52.520;13.450;2024-03-08T01:39:55;4.00;;;1.63;;
49820;SDS011;36893;52.520;13.450;2024-03-08T01:49:56;4.57;;;2.07;;
49820;SDS011;36893;52.520;13.450;2024-03-08T01:59:58;3.45;;;1.50;;
49820;SDS011;36893;52.520;13.450;2024-03-08T02:09:58;3.53;;;1.90;;
49820;SDS011;36893;52.520;13.450;2024-03-08T02:19:59;2.20;;;1.37;;
49820;SDS011;36893;52.520;13.450;2024-03-08T02:30:04;6.03;;;1.63;;
49820;SDS011;36893;52.520;13.450;2024-03-08T02:40:06;2.30;;;1.42;;
49820;SDS011;36893;52.520;13.450;2024-03-08T02:50:07;5.20;;;1.90;;
49820;SDS011;36893;52.520;13.450;2024-03-08T03:00:08;4.55;;;2.03;;
49820;SDS011;36893;52.520;13.450;2024-03-08T03:10:10;2.80;;;1.42;;
49820;SDS011;36893;52.520;13.450;2024-03-08T03:20:12;3.58;;;1.75;;
49820;SDS011;36893;52.520;13.450;2024-03-08T03:30:14;3.78;;;1.70;;
49820;SDS011;36893;52.520;13.450;2024-03-08T03:40:26;3.75;;;1.70;;
49820;SDS011;36893;52.520;13.450;2024-03-08T04:00:30;4.38;;;1.95;;
49820;SDS011;36893;52.520;13.450;2024-03-08T04:10:31;3.43;;;1.60;;
49820;SDS011;36893;52.520;13.450;2024-03-08T04:20:31;1.77;;;1.13;;
49820;SDS011;36893;52.520;13.450;2024-03-08T04:30:32;4.43;;;1.63;;
49820;SDS011;36893;52.520;13.450;2024-03-08T04:40:32;3.57;;;1.80;;
49820;SDS011;36893;52.520;13.450;2024-03-08T04:50:34;3.83;;;1.80;;
49820;SDS011;36893;52.520;13.450;2024-03-08T05:00:35;3.17;;;1.52;;
49820;SDS011;36893;52.520;13.450;2024-03-08T05:10:35;3.40;;;1.47;;
49820;SDS011;36893;52.520;13.450;2024-03-08T05:20:36;4.07;;;1.67;;
49820;SDS011;36893;52.520;13.450;2024-03-08T05:30:37;2.40;;;1.35;;
49820;SDS011;36893;52.520;13.450;2024-03-08T05:40:38;3.28;;;1.70;;
49820;SDS011;36893;52.520;13.450;2024-03-08T05:50:39;9.07;;;2.25;;
49820;SDS011;36893;52.520;13.450;2024-03-08T06:00:40;2.83;;;1.27;;
49820;SDS011;36893;52.520;13.450;2024-03-08T06:10:40;2.87;;;1.63;;
49820;SDS011;36893;52.520;13.450;2024-03-08T06:20:41;5.83;;;1.60;;
49820;SDS011;36893;52.520;13.450;2024-03-08T06:30:43;3.05;;;1.60;;
49820;SDS011;36893;52.520;13.450;2024-03-08T06:40:44;4.20;;;1.87;;
49820;SDS011;36893;52.520;13.450;2024-03-08T06:50:47;4.20;;;1.40;;
49820;SDS011;36893;52.520;13.450;2024-03-08T07:00:48;4.50;;;1.57;;
49820;SDS011;36893;52.520;13.450;2024-03-08T07:20:53;3.70;;;1.70;;
49820;SDS011;36893;52.520;13.450;2024-03-08T07:30:54;4.00;;;1.93;;
49820;SDS011;36893;52.520;13.450;2024-03-08T07:41:08;5.40;;;1.80;;
49820;SDS011;36893;52.520;13.450;2024-03-08T07:51:08;5.57;;;2.00;;
49820;SDS011;36893;52.520;13.450;2024-03-08T08:01:18;3.10;;;1.73;;
49820;SDS011;36893;52.520;13.450;2024-03-08T08:11:19;3.85;;;1.73;;
49820;SDS011;36893;52.520;13.450;2024-03-08T08:21:20;4.07;;;1.80;;
49820;SDS011;36893;52.520;13.450;2024-03-08T08:31:22;6.10;;;1.90;;
49820;SDS011;36893;52.520;13.450;2024-03-08T08:41:22;6.60;;;2.50;;
49820;SDS011;36893;52.520;13.450;2024-03-08T08:51:23;6.87;;;2.13;;
49820;SDS011;36893;52.520;13.450;2024-03-08T09:01:24;3.80;;;2.10;;
49820;SDS011;36893;52.520;13.450;2024-03-08T09:11:24;6.43;;;2.07;;
49820;SDS011;36893;52.520;13.450;2024-03-08T09:21:25;4.40;;;2.23;;
49820;SDS011;36893;52.520;13.450;2024-03-08T09:31:27;4.90;;;2.20;;
49820;SDS011;36893;52.520;13.450;2024-03-08T09:41:27;6.73;;;2.60;;
49820;SDS011;36893;52.520;13.450;2024-03-08T09:51:30;6.22;;;3.00;;
49820;SDS011;36893;52.520;13.450;2024-03-08T10:01:34;4.55;;;2.22;;
49820;SDS011;36893;52.520;13.450;2024-03-08T10:11:35;5.20;;;2.90;;
49820;SDS011;36893;52.520;13.450;2024-03-08T10:21:36;6.43;;;2.83;;
49820;SDS011;36893;52.520;13.450;2024-03-08T10:31:53;7.63;;;3.20;;
49820;SDS011;36893;52.520;13.450;2024-03-08T10:41:58;6.17;;;3.37;;
49820;SDS011;36893;52.520;13.450;2024-03-08T10:52:04;7.38;;;3.40;;
49820;SDS011;36893;52.520;13.450;2024-03-08T11:02:08;8.30;;;3.13;;
49820;SDS011;36893;52.520;13.450;2024-03-08T11:12:25;5.47;;;2.75;;
49820;SDS011;36893;52.520;13.450;2024-03-08T11:22:29;6.80;;;2.78;;
49820;SDS011;36893;52.520;13.450;2024-03-08T11:32:33;7.10;;;3.08;;
49820;SDS011;36893;52.520;13.450;2024-03-08T11:42:35;8.50;;;3.03;;
49820;SDS011;36893;52.520;13.450;2024-03-08T12:02:37;7.67;;;3.87;;
49820;SDS011;36893;52.520;13.450;2024-03-08T12:12:41;8.53;;;4.23;;
49820;SDS011;36893;52.520;13.450;2024-03-08T12:22:42;6.33;;;3.40;;
49820;SDS011;36893;52.520;13.450;2024-03-08T12:32:53;7.47;;;3.80;;
49820;SDS011;36893;52.520;13.450;2024-03-08T12:42:59;10.60;;;3.90;;
49820;SDS011;36893;52.520;13.450;2024-03-08T12:52:59;12.90;;;4.57;;
49820;SDS011;36893;52.520;13.450;2024-03-08T13:03:01;7.10;;;3.65;;
49820;SDS011;36893;52.520;13.450;2024-03-08T13:13:02;10.93;;;4.03;;
49820;SDS011;36893;52.520;13.450;2024-03-08T13:23:04;11.68;;;4.65;;
49820;SDS011;36893;52.520;13.450;2024-03-08T13:33:06;7.95;;;4.05;;
49820;SDS011;36893;52.520;13.450;2024-03-08T13:43:07;8.53;;;4.63;;
49820;SDS011;36893;52.520;13.450;2024-03-08T13:53:07;6.43;;;3.67;;
49820;SDS011;36893;52.520;13.450;2024-03-08T14:03:10;10.68;;;4.32;;
49820;SDS011;36893;52.520;13.450;2024-03-08T14:13:12;10.23;;;4.43;;
49820;SDS011;36893;52.520;13.450;2024-03-08T14:33:16;6.33;;;3.73;;
49820;SDS011;36893;52.520;13.450;2024-03-08T14:43:17;6.80;;;4.03;;
49820;SDS011;36893;52.520;13.450;2024-03-08T14:53:21;9.52;;;4.13;;
49820;SDS011;36893;52.520;13.450;2024-03-08T15:03:21;9.30;;;3.37;;
49820;SDS011;36893;52.520;13.450;2024-03-08T15:13:26;6.88;;;3.30;;
49820;SDS011;36893;52.520;13.450;2024-03-08T15:23:40;5.85;;;3.00;;
49820;SDS011;36893;52.520;13.450;2024-03-08T15:33:46;9.15;;;3.72;;
49820;SDS011;36893;52.520;13.450;2024-03-08T15:43:51;8.25;;;3.53;;
49820;SDS011;36893;52.520;13.450;2024-03-08T15:53:52;11.80;;;4.07;;
49820;SDS011;36893;52.520;13.450;2024-03-08T16:03:53;24.07;;;5.20;;
49820;SDS011;36893;52.520;13.450;2024-03-08T16:13:54;15.77;;;4.20;;
49820;SDS011;36893;52.520;13.450;2024-03-08T16:23:56;18.05;;;4.38;;
49820;SDS011;36893;52.520;13.450;2024-03-08T16:33:57;18.27;;;4.87;;
49820;SDS011;36893;52.520;13.450;2024-03-08T16:43:57;15.23;;;4.10;;
49820;SDS011;36893;52.520;13.450;2024-03-08T16:54:00;13.30;;;3.95;;
49820;SDS011;36893;52.520;13.450;2024-03-08T17:04:02;10.68;;;3.88;;
49820;SDS011;36893;52.520;13.450;2024-03-08T17:14:04;13.57;;;4.28;;
49820;SDS011;36893;52.520;13.450;2024-03-08T17:24:04;15.37;;;3.50;;
49820;SDS011;36893;52.520;13.450;2024-03-08T17:34:11;10.13;;;4.13;;
49820;SDS011;36893;52.520;13.450;2024-03-08T17:44:19;13.65;;;3.22;;
49820;SDS011;36893;52.520;13.450;2024-03-08T17:54:20;9.95;;;2.80;;
49820;SDS011;36893;52.520;13.450;2024-03-08T18:04:21;8.60;;;2.83;;
49820;SDS011;36893;52.520;13.450;2024-03-08T18:14:22;11.95;;;3.70;;
49820;SDS011;36893;52.520;13.450;2024-03-08T18:24:23;7.40;;;3.10;;
49820;SDS011;36893;52.520;13.450;2024-03-08T18:34:25;10.10;;;2.65;;
49820;SDS011;36893;52.520;13.450;2024-03-08T18:44:26;6.67;;;2.50;;
49820;SDS011;36893;52.520;13.450;2024-03-08T18:54:26;5.10;;;2.10;;
49820;SDS011;36893;52.520;13.450;2024-03-08T19:04:27;6.40;;;3.10;;
49820;SDS011;36893;52.520;13.450;2024-03-08T19:14:28;8.50;;;3.27;;
49820;SDS011;36893;52.520;13.450;2024-03-08T19:24:28;6.07;;;2.67;;
49820;SDS011;36893;52.520;13.450;2024-03-08T19:34:29;5.60;;;2.67;;
49820;SDS011;36893;52.520;13.450;2024-03-08T19:44:31;5.95;;;2.75;;
49820;SDS011;36893;52.520;13.450;2024-03-08T19:54:33;9.43;;;3.05;;
49820;SDS011;36893;52.520;13.450;2024-03-08T20:04:37;6.85;;;2.47;;
49820;SDS011;36893;52.520;13.450;2024-03-08T20:14:40;5.10;;;2.38;;
49820;SDS011;36893;52.520;13.450;2024-03-08T20:24:42;5.80;;;2.43;;
49820;SDS011;36893;52.520;13.450;2024-03-08T20:34:42;5.95;;;2.47;;
49820;SDS011;36893;52.520;13.450;2024-03-08T20:44:43;5.00;;;2.53;;
49820;SDS011;36893;52.520;13.450;2024-03-08T20:54:44;6.13;;;2.58;;
49820;SDS011;36893;52.520;13.450;2024-03-08T21:04:48;5.47;;;2.43;;
49820;SDS011;36893;52.520;13.450;2024-03-08T21:14:55;5.63;;;2.80;;
49820;SDS011;36893;52.520;13.450;2024-03-08T21:24:58;5.15;;;2.47;;
49820;SDS011;36893;52.520;13.450;2024-03-08T21:34:59;5.05;;;2.85;;
49820;SDS011;36893;52.520;13.450;2024-03-08T21:45:01;7.17;;;2.90;;
49820;SDS011;36893;52.520;13.450;2024-03-08T21:55:03;6.10;;;2.63;;
49820;SDS011;36893;52.520;13.450;2024-03-08T22:05:05;4.90;;;2.45;;
49820;SDS011;36893;52.520;13.450;2024-03-08T22:15:10;7.03;;;2.90;;
49820;SDS011;36893;52.520;13.450;2024-03-08T22:25:11;5.23;;;2.47;;
49820;SDS011;36893;52.520;13.450;2024-03-08T22:35:12;6.60;;;3.05;;
49820;SDS011;36893;52.520;13.450;2024-03-08T22:45:14;5.55;;;2.70;;
49820;SDS011;36893;52.520;13.450;2024-03-08T22:55:15;5.03;;;2.63;;
49820;SDS011;36893;52.520;13.450;2024-03-08T23:05:19;3.53;;;2.00;;
49820;SDS011;36893;52.520;13.450;2024-03-08T23:15:22;6.25;;;2.63;;
49820;SDS011;36893;52.520;13.450;2024-03-08T23:25:27;6.03;;;2.60;;
49820;SDS011;36893;52.520;13.450;2024-03-08T23:35:28;5.70;;;2.90;;
49820;SDS011;36893;52.520;13.450;2024-03-08T23:45:29;5.82;;;2.95;;
49820;SDS011;36893;52.520;13.450;2024-03-08T23:55:30;6.07;;;2.85;;
